Time;durP1;ratioP1;P1;durP2;ratioP2;P2;SDS_P1;SDS_P2;PMS_P1;PMS_P2;Temp;Humidity;BMP_temperature;BMP_pressure;BME280_temperature;BME280_humidity;BME280_pressure;Samples;Min_cycle;Max_cycle;Signal;HPM_P1;HPM_P2
2023/12/18 00:01:26;;;;;;;89.05;23.80;;;1.10;99.90;;;;;;4952134;28;20039;-91
2023/12/18 00:03:55;;;;;;;71.85;24.48;;;1.20;99.90;;;;;;4937063;28;20133;-91
2023/12/18 00:06:21;;;;;;;86.88;23.10;;;1.10;99.90;;;;;;4960634;28;20034;-91
2023/12/18 00:08:46;;;;;;;86.55;27.08;;;1.10;99.90;;;;;;4960240;28;20031;-91
2023/12/18 00:11:14;;;;;;;75.57;23.73;;;1.10;99.90;;;;;;4962003;28;20335;-90
2023/12/18 00:13:40;;;;;;;81.82;24.00;;;1.10;99.90;;;;;;4961149;28;20116;-92
2023/12/18 00:16:06;;;;;;;81.47;25.15;;;1.10;99.90;;;;;;4962506;28;20498;-92
2023/12/18 00:18:32;;;;;;;74.28;25.52;;;1.20;99.90;;;;;;4960761;29;20457;-91
2023/12/18 00:20:58;;;;;;;84.20;26.10;;;1.10;99.90;;;;;;4968005;28;20122;-92
2023/12/18 00:23:23;;;;;;;77.53;23.70;;;1.10;99.90;;;;;;4965982;28;20402;-92
2023/12/18 00:25:49;;;;;;;73.25;23.98;;;1.10;99.90;;;;;;4940169;29;20031;-90
2023/12/18 00:28:14;;;;;;;76.38;23.70;;;1.10;99.90;;;;;;4952613;28;20042;-90
2023/12/18 00:30:41;;;;;;;90.20;27.20;;;1.00;99.90;;;;;;4957358;28;20091;-92
2023/12/18 00:33:06;;;;;;;87.88;26.08;;;1.10;99.90;;;;;;4950165;28;20123;-91
2023/12/18 00:35:32;;;;;;;86.95;25.20;;;1.10;99.90;;;;;;4958343;28;20099;-90
2023/12/18 00:37:58;;;;;;;86.70;26.42;;;1.10;99.90;;;;;;4961804;28;20046;-91
2023/12/18 00:40:23;;;;;;;75.93;26.05;;;1.00;99.90;;;;;;4962642;28;20030;-91
2023/12/18 00:42:52;;;;;;;79.85;26.35;;;1.00;99.90;;;;;;4966595;28;20023;-91
2023/12/18 00:45:17;;;;;;;104.93;28.65;;;1.10;99.90;;;;;;4959324;28;20027;-89
2023/12/18 00:47:43;;;;;;;76.90;24.10;;;1.10;99.90;;;;;;4959336;28;20106;-91
2023/12/18 00:50:18;;;;;;;93.20;28.63;;;1.10;99.90;;;;;;4960324;28;20118;-91
2023/12/18 00:52:44;;;;;;;108.50;25.50;;;1.00;99.90;;;;;;4950208;28;20019;-89
2023/12/18 00:55:09;;;;;;;103.30;26.20;;;1.10;99.90;;;;;;4946589;28;20066;-93
2023/12/18 00:57:35;;;;;;;124.88;27.30;;;1.00;99.90;;;;;;4956486;28;20050;-91
2023/12/18 01:00:01;;;;;;;129.70;30.40;;;1.00;99.90;;;;;;4957543;28;20089;-91
2023/12/18 01:02:26;;;;;;;88.53;27.13;;;1.00;99.90;;;;;;4959062;28;20482;-91
2023/12/18 01:04:52;;;;;;;91.97;26.77;;;1.10;99.90;;;;;;4940740;28;20305;-92
2023/12/18 01:07:23;;;;;;;110.88;30.95;;;1.00;99.90;;;;;;4954178;28;20393;-90
2023/12/18 01:09:49;;;;;;;95.03;24.75;;;1.00;99.90;;;;;;4958473;28;20019;-91
2023/12/18 01:12:15;;;;;;;94.32;26.02;;;0.90;99.90;;;;;;4957535;28;20042;-93
2023/12/18 01:14:41;;;;;;;94.57;25.50;;;1.00;99.90;;;;;;4957992;28;20020;-91
2023/12/18 01:17:07;;;;;;;95.95;27.25;;;0.90;99.90;;;;;;4958885;28;20016;-92
2023/12/18 01:19:32;;;;;;;112.80;28.08;;;1.00;99.90;;;;;;4957600;28;20106;-90
2023/12/18 01:21:58;;;;;;;90.40;27.45;;;0.90;99.90;;;;;;4950364;28;20038;-91
2023/12/18 01:24:24;;;;;;;85.03;25.88;;;0.90;99.90;;;;;;4964385;28;20030;-91
2023/12/18 01:26:49;;;;;;;84.55;25.63;;;0.90;99.90;;;;;;4966409;28;20035;-92
2023/12/18 01:29:15;;;;;;;77.93;26.48;;;0.90;99.90;;;;;;4960568;28;20031;-91
2023/12/18 01:31:40;;;;;;;95.00;24.60;;;0.90;99.90;;;;;;4940509;29;20517;-92
2023/12/18 01:34:06;;;;;;;80.82;24.92;;;0.90;99.90;;;;;;4960002;28;20078;-91
2023/12/18 01:36:32;;;;;;;73.63;25.48;;;0.80;99.90;;;;;;4958838;28;20506;-92
2023/12/18 01:38:57;;;;;;;74.72;26.27;;;0.80;99.90;;;;;;4957776;28;20031;-92
2023/12/18 01:41:23;;;;;;;78.97;29.58;;;0.80;99.90;;;;;;4964685;28;20453;-91
2023/12/18 01:43:49;;;;;;;68.40;23.65;;;0.80;99.90;;;;;;4942917;28;20034;-92
2023/12/18 01:46:21;;;;;;;72.93;24.60;;;0.70;99.90;;;;;;4963760;28;20034;-91
2023/12/18 01:48:48;;;;;;;72.03;24.35;;;0.70;99.90;;;;;;4959227;28;20032;-91
2023/12/18 01:51:14;;;;;;;77.93;29.05;;;0.70;99.90;;;;;;4962595;28;20414;-91
2023/12/18 01:53:46;;;;;;;73.53;25.73;;;0.80;99.90;;;;;;4957682;28;20030;-89
2023/12/18 01:56:17;;;;;;;65.88;24.77;;;0.70;99.90;;;;;;4961415;28;20526;-92
2023/12/18 01:58:44;;;;;;;63.85;24.35;;;0.70;99.90;;;;;;4958426;28;20019;-91
2023/12/18 02:01:11;;;;;;;61.05;25.73;;;0.70;99.90;;;;;;4957190;28;20027;-92
2023/12/18 02:03:38;;;;;;;73.47;23.17;;;0.70;99.90;;;;;;4935076;28;20070;-90
2023/12/18 02:06:06;;;;;;;58.45;24.50;;;0.60;99.90;;;;;;4940736;29;20027;-90
2023/12/18 02:08:32;;;;;;;67.72;24.30;;;0.60;99.90;;;;;;4956636;28;20038;-91
2023/12/18 02:10:59;;;;;;;67.70;22.92;;;0.60;99.90;;;;;;4939799;28;20034;-92
2023/12/18 02:13:24;;;;;;;59.40;24.25;;;0.60;99.90;;;;;;4940414;29;20027;-89
2023/12/18 02:15:50;;;;;;;60.90;21.73;;;0.60;99.90;;;;;;4956854;28;20027;-91
2023/12/18 02:18:16;;;;;;;59.35;24.52;;;0.70;99.90;;;;;;4957721;28;20020;-91
2023/12/18 02:20:42;;;;;;;59.30;22.25;;;0.60;99.90;;;;;;4958993;28;20027;-91
2023/12/18 02:23:12;;;;;;;56.88;23.63;;;0.70;99.90;;;;;;4959056;28;20063;-91
2023/12/18 02:25:38;;;;;;;49.95;22.52;;;0.60;99.90;;;;;;4957852;28;20055;-92
2023/12/18 02:28:06;;;;;;;66.57;25.40;;;0.60;99.90;;;;;;4959955;28;20023;-92
2023/12/18 02:30:35;;;;;;;55.95;23.02;;;0.60;99.90;;;;;;4951488;28;20035;-92
2023/12/18 02:33:01;;;;;;;63.88;24.45;;;0.50;99.90;;;;;;4938553;29;20506;-92
2023/12/18 02:35:26;;;;;;;55.00;22.65;;;0.50;99.90;;;;;;4933709;29;20111;-91
2023/12/18 02:37:52;;;;;;;62.70;21.75;;;0.50;99.90;;;;;;4959639;28;20027;-90
2023/12/18 02:40:18;;;;;;;67.05;24.05;;;0.50;99.90;;;;;;4959261;28;20086;-92
2023/12/18 02:42:43;;;;;;;61.13;25.23;;;0.60;99.90;;;;;;4960396;28;20031;-91
2023/12/18 02:45:12;;;;;;;50.97;23.55;;;0.50;99.90;;;;;;4959969;28;20046;-91
2023/12/18 02:47:38;;;;;;;56.50;23.63;;;0.40;99.90;;;;;;4967740;28;20054;-91
2023/12/18 02:50:04;;;;;;;62.95;25.08;;;0.40;99.90;;;;;;4965570;28;20023;-92
2023/12/18 02:52:29;;;;;;;54.13;23.38;;;0.40;99.90;;;;;;4960194;28;20023;-90
2023/12/18 02:54:55;;;;;;;56.83;23.35;;;0.40;99.90;;;;;;4959795;28;20071;-91
2023/12/18 02:57:21;;;;;;;55.65;21.95;;;0.40;99.90;;;;;;4959711;28;20029;-91
2023/12/18 02:59:46;;;;;;;53.42;23.90;;;0.40;99.90;;;;;;4968537;28;20027;-92
2023/12/18 03:02:12;;;;;;;53.53;23.98;;;0.40;99.90;;;;;;4922517;28;1080318;-92
2023/12/18 03:04:41;;;;;;;51.47;24.55;;;0.40;99.90;;;;;;4960350;28;20058;-90
2023/12/18 03:07:07;;;;;;;51.97;23.27;;;0.40;99.90;;;;;;4966189;28;20106;-92
2023/12/18 03:09:33;;;;;;;52.83;21.52;;;0.40;99.90;;;;;;4962115;28;20031;-90
2023/12/18 03:11:59;;;;;;;53.17;20.80;;;0.30;99.90;;;;;;4939086;28;20023;-91
2023/12/18 03:14:24;;;;;;;49.47;21.77;;;0.40;99.90;;;;;;4964740;28;20035;-91
2023/12/18 03:16:50;;;;;;;50.28;22.50;;;0.40;99.90;;;;;;4959921;28;20027;-91
2023/12/18 03:19:16;;;;;;;53.90;25.88;;;0.30;99.90;;;;;;4953860;28;20383;-90
2023/12/18 03:21:42;;;;;;;55.85;23.13;;;0.30;99.90;;;;;;4957217;28;20499;-91
2023/12/18 03:24:07;;;;;;;52.80;22.45;;;0.40;99.90;;;;;;4958913;28;20023;-91
2023/12/18 03:26:33;;;;;;;55.55;23.17;;;0.40;99.90;;;;;;4963549;28;20031;-91
2023/12/18 03:28:59;;;;;;;49.08;20.08;;;0.40;99.90;;;;;;4959052;28;20070;-91
2023/12/18 03:31:24;;;;;;;46.90;21.85;;;0.40;99.90;;;;;;4959433;28;20049;-91
2023/12/18 03:33:50;;;;;;;51.42;22.25;;;0.30;99.90;;;;;;4942512;28;20027;-91
2023/12/18 03:36:16;;;;;;;53.45;22.75;;;0.30;99.90;;;;;;4948206;29;20091;-92
2023/12/18 03:38:41;;;;;;;50.88;21.13;;;0.30;99.90;;;;;;4968202;28;20501;-92
2023/12/18 03:41:07;;;;;;;46.83;21.88;;;0.30;99.90;;;;;;4959057;28;20428;-90
2023/12/18 03:43:32;;;;;;;55.85;21.10;;;0.40;99.90;;;;;;4958755;28;20024;-92
2023/12/18 03:45:58;;;;;;;51.47;22.38;;;0.30;99.90;;;;;;4964950;28;20033;-91
2023/12/18 03:48:24;;;;;;;58.95;23.50;;;0.30;99.90;;;;;;4962737;28;20282;-91
2023/12/18 03:50:49;;;;;;;63.22;24.40;;;0.30;99.90;;;;;;4958971;28;20034;-91
2023/12/18 03:53:15;;;;;;;53.65;23.50;;;0.30;99.90;;;;;;4959128;28;20038;-90
2023/12/18 03:55:40;;;;;;;56.22;22.77;;;0.30;99.90;;;;;;4959094;28;20020;-91
2023/12/18 03:58:08;;;;;;;64.00;25.67;;;0.30;99.90;;;;;;4963081;28;20406;-92
2023/12/18 04:00:47;;;;;;;57.40;25.50;;;0.30;99.90;;;;;;4951424;28;20028;-91
2023/12/18 04:03:13;;;;;;;59.53;22.67;;;0.30;99.90;;;;;;4961057;28;20055;-91
2023/12/18 04:05:38;;;;;;;65.72;23.02;;;0.30;99.90;;;;;;4944409;28;20034;-91
2023/12/18 04:08:04;;;;;;;61.63;23.05;;;0.20;99.90;;;;;;4959467;28;20034;-90
2023/12/18 04:10:33;;;;;;;97.45;26.95;;;0.20;99.90;;;;;;4959279;28;20031;-91
2023/12/18 04:13:01;;;;;;;69.63;24.20;;;0.20;99.90;;;;;;4955205;28;20031;-91
2023/12/18 04:15:27;;;;;;;85.20;24.60;;;0.10;99.90;;;;;;4949920;28;20640;-91
2023/12/18 04:17:55;;;;;;;60.85;22.02;;;0.20;99.90;;;;;;4955532;28;20035;-90
2023/12/18 04:20:21;;;;;;;58.25;24.00;;;0.20;99.90;;;;;;4966355;28;20662;-90
2023/12/18 04:22:46;;;;;;;91.18;25.38;;;0.20;99.90;;;;;;4959916;28;20057;-92
2023/12/18 04:25:12;;;;;;;87.22;23.35;;;0.20;99.90;;;;;;4939876;29;20082;-91
2023/12/18 04:27:41;;;;;;;115.35;30.50;;;0.20;99.90;;;;;;4939216;28;20430;-91
2023/12/18 04:30:10;;;;;;;62.53;23.15;;;0.20;99.90;;;;;;4964365;28;20118;-90
2023/12/18 04:32:36;;;;;;;93.95;24.80;;;0.20;99.90;;;;;;4958944;28;20035;-91
2023/12/18 04:35:02;;;;;;;69.38;25.45;;;0.20;99.90;;;;;;4951270;28;20024;-90
2023/12/18 04:37:32;;;;;;;84.72;23.27;;;0.20;99.90;;;;;;4958191;28;20458;-91
2023/12/18 04:39:58;;;;;;;80.90;23.80;;;0.10;99.90;;;;;;4940496;28;20082;-91
2023/12/18 04:42:23;;;;;;;91.18;26.20;;;0.10;99.90;;;;;;4957745;28;20031;-92
2023/12/18 04:44:49;;;;;;;58.33;22.50;;;0.10;99.90;;;;;;4958352;28;20031;-90
2023/12/18 04:47:15;;;;;;;74.35;22.80;;;0.20;99.90;;;;;;4952205;28;20102;-91
2023/12/18 04:49:41;;;;;;;81.13;25.70;;;0.10;99.90;;;;;;4958035;28;20018;-92
2023/12/18 04:52:06;;;;;;;62.03;22.48;;;0.10;99.90;;;;;;4951715;28;20038;-92
2023/12/18 04:54:32;;;;;;;67.57;24.85;;;0.10;99.90;;;;;;4951526;28;20398;-91
2023/12/18 04:56:58;;;;;;;84.72;24.40;;;0.10;99.90;;;;;;4954825;28;20034;-92
2023/12/18 04:59:24;;;;;;;80.18;27.52;;;0.10;99.90;;;;;;4941781;29;20399;-91
2023/12/18 05:01:50;;;;;;;59.13;23.15;;;0.00;99.90;;;;;;4959774;28;20034;-88
2023/12/18 05:04:15;;;;;;;52.10;22.85;;;0.00;99.90;;;;;;4969335;28;20034;-90
2023/12/18 05:06:41;;;;;;;52.90;21.42;;;0.00;99.90;;;;;;4968507;28;20429;-92
2023/12/18 05:09:09;;;;;;;48.47;22.10;;;0.10;99.90;;;;;;4966357;28;20093;-91
2023/12/18 05:11:35;;;;;;;74.15;22.88;;;0.00;99.90;;;;;;4958453;28;20035;-91
2023/12/18 05:14:03;;;;;;;56.20;23.98;;;0.00;99.90;;;;;;4957816;28;20035;-91
2023/12/18 05:16:29;;;;;;;51.75;19.67;;;0.00;99.90;;;;;;4956697;28;20027;-90
2023/12/18 05:18:56;;;;;;;69.18;22.63;;;0.00;99.90;;;;;;4945742;28;20035;-92
2023/12/18 05:21:22;;;;;;;51.47;21.95;;;0.00;99.90;;;;;;4964516;28;20105;-89
2023/12/18 05:23:49;;;;;;;53.90;22.05;;;0.00;99.90;;;;;;4959429;28;20110;-93
2023/12/18 05:26:15;;;;;;;44.22;19.67;;;-0.10;99.90;;;;;;4961270;28;20134;-92
2023/12/18 05:28:43;;;;;;;47.80;20.65;;;-0.10;99.90;;;;;;4957118;28;20055;-91
2023/12/18 05:31:10;;;;;;;53.60;23.10;;;-0.20;99.90;;;;;;4963515;28;20363;-90
2023/12/18 05:33:36;;;;;;;47.85;21.67;;;-0.10;99.90;;;;;;4953942;28;20026;-91
2023/12/18 05:36:01;;;;;;;43.03;20.77;;;-0.10;99.90;;;;;;4947486;28;20026;-90
2023/12/18 05:38:27;;;;;;;51.15;20.95;;;-0.10;99.90;;;;;;4959194;28;20023;-89
2023/12/18 05:40:55;;;;;;;54.85;26.80;;;0.00;99.90;;;;;;4957763;28;20454;-92
2023/12/18 05:43:21;;;;;;;;;;;0.00;99.90;;;;;;4958022;28;20090;-91
2023/12/18 05:45:46;;;;;;;53.63;21.40;;;0.00;99.90;;;;;;4947934;28;20012;-90
2023/12/18 05:48:12;;;;;;;54.35;20.42;;;0.00;99.90;;;;;;4957493;28;20032;-90
2023/12/18 05:50:41;;;;;;;52.78;21.98;;;-0.10;99.90;;;;;;4957084;28;20031;-88
2023/12/18 05:53:06;;;;;;;53.58;24.30;;;-0.10;99.90;;;;;;4956031;28;20019;-90
2023/12/18 05:55:34;;;;;;;54.25;22.95;;;-0.10;99.90;;;;;;4954041;29;20118;-91
2023/12/18 05:58:00;;;;;;;50.38;21.42;;;0.00;99.90;;;;;;4970517;28;20035;-91
2023/12/18 06:00:25;;;;;;;48.20;22.10;;;-0.10;99.90;;;;;;4945029;29;20083;-91
2023/12/18 06:02:51;;;;;;;50.88;21.73;;;-0.10;99.90;;;;;;4967499;28;20039;-91
2023/12/18 06:05:17;;;;;;;47.60;23.55;;;-0.10;99.90;;;;;;4961713;28;20126;-91
2023/12/18 06:07:42;;;;;;;57.92;21.20;;;-0.10;99.90;;;;;;4963939;28;20031;-91
2023/12/18 06:10:10;;;;;;;52.05;20.58;;;-0.10;99.90;;;;;;4952330;28;20024;-90
2023/12/18 06:12:36;;;;;;;49.38;21.42;;;-0.10;99.90;;;;;;4960191;28;20031;-92
2023/12/18 06:15:06;;;;;;;52.03;22.08;;;-0.10;99.90;;;;;;4942765;29;20034;-89
2023/12/18 06:17:31;;;;;;;48.13;21.60;;;0.00;99.90;;;;;;4944204;29;20035;-91
2023/12/18 06:19:57;;;;;;;51.20;21.45;;;-0.10;99.90;;;;;;4959793;28;20014;-90
2023/12/18 06:22:23;;;;;;;53.80;23.75;;;-0.10;99.90;;;;;;4957370;28;20034;-90
2023/12/18 06:24:49;;;;;;;68.15;21.90;;;0.00;99.90;;;;;;4952688;28;20035;-90
2023/12/18 06:27:14;;;;;;;54.03;21.65;;;-0.10;99.90;;;;;;4938750;28;20090;-89
2023/12/18 06:29:41;;;;;;;54.17;22.73;;;-0.10;99.90;;;;;;4962216;28;20520;-91
2023/12/18 06:32:07;;;;;;;55.17;22.52;;;-0.10;99.90;;;;;;4964171;28;20035;-91
2023/12/18 06:34:32;;;;;;;54.08;21.90;;;0.00;99.90;;;;;;4961444;28;20050;-92
2023/12/18 06:36:58;;;;;;;52.90;21.40;;;-0.10;99.90;;;;;;4961423;28;20023;-90
2023/12/18 06:39:27;;;;;;;65.90;20.75;;;-0.10;99.90;;;;;;4956355;28;20082;-89
2023/12/18 06:41:52;;;;;;;52.30;22.05;;;-0.10;99.90;;;;;;4956376;28;20027;-91
2023/12/18 06:44:21;;;;;;;66.88;21.30;;;-0.10;99.90;;;;;;4957864;28;20060;-90
2023/12/18 06:46:47;;;;;;;64.57;23.67;;;-0.10;99.90;;;;;;4944462;28;20031;-90
2023/12/18 06:49:12;;;;;;;62.67;22.73;;;-0.20;99.90;;;;;;4963105;28;20087;-91
2023/12/18 06:51:44;;;;;;;52.38;20.88;;;-0.20;99.90;;;;;;4966516;28;20039;-90
2023/12/18 06:54:10;;;;;;;56.15;22.13;;;-0.30;99.90;;;;;;4967263;28;20031;-90
2023/12/18 06:56:37;;;;;;;47.55;21.40;;;-0.20;99.90;;;;;;4968993;28;20039;-89
2023/12/18 06:59:03;;;;;;;46.60;20.80;;;-0.20;99.90;;;;;;4959777;28;20063;-90
2023/12/18 07:01:28;;;;;;;47.88;21.90;;;-0.20;99.90;;;;;;4961934;28;20031;-90
2023/12/18 07:03:57;;;;;;;49.10;21.80;;;-0.10;99.90;;;;;;4960036;28;20042;-90
2023/12/18 07:06:22;;;;;;;82.28;22.90;;;-0.20;99.90;;;;;;4940974;29;20031;-90
2023/12/18 07:08:48;;;;;;;43.25;20.60;;;-0.10;99.90;;;;;;4924236;28;20027;-91
2023/12/18 07:11:13;;;;;;;55.47;25.65;;;-0.10;99.90;;;;;;4945419;28;20131;-91
2023/12/18 07:13:39;;;;;;;50.47;22.92;;;-0.10;99.90;;;;;;4951819;28;20083;-91
2023/12/18 07:16:05;;;;;;;48.30;23.08;;;-0.10;99.90;;;;;;4929055;29;20046;-91
2023/12/18 07:18:31;;;;;;;59.83;28.73;;;-0.10;99.90;;;;;;4944761;28;20638;-91
2023/12/18 07:20:57;;;;;;;63.35;27.73;;;-0.10;99.90;;;;;;4949755;28;20054;-90
2023/12/18 07:23:22;;;;;;;56.55;28.10;;;-0.10;99.90;;;;;;4931572;28;20035;-90
2023/12/18 07:25:48;;;;;;;63.03;27.63;;;-0.10;99.90;;;;;;4948966;28;20042;-94
2023/12/18 07:28:13;;;;;;;62.08;26.85;;;-0.10;99.90;;;;;;4958761;28;20031;-91
2023/12/18 07:30:39;;;;;;;51.28;23.00;;;-0.10;99.90;;;;;;4964027;28;20522;-90
2023/12/18 07:33:05;;;;;;;61.03;24.48;;;-0.20;99.90;;;;;;4963401;28;20031;-90
2023/12/18 07:35:34;;;;;;;54.28;23.00;;;-0.20;99.90;;;;;;4964549;28;20053;-89
2023/12/18 07:37:59;;;;;;;60.65;22.90;;;-0.20;99.90;;;;;;4959110;28;20023;-90
2023/12/18 07:40:25;;;;;;;58.83;21.90;;;-0.30;99.90;;;;;;4960276;28;20402;-90
2023/12/18 07:42:50;;;;;;;57.05;25.35;;;-0.30;99.90;;;;;;4961726;28;20094;-91
2023/12/18 07:45:17;;;;;;;54.17;22.52;;;-0.40;99.90;;;;;;4969224;28;20035;-91
2023/12/18 07:47:42;;;;;;;45.20;24.10;;;-0.40;99.90;;;;;;4948545;29;20082;-91
2023/12/18 07:50:09;;;;;;;56.92;22.83;;;-0.40;99.90;;;;;;4968266;28;20031;-90
2023/12/18 07:52:35;;;;;;;47.33;21.73;;;-0.30;99.90;;;;;;4959625;28;20094;-89
2023/12/18 07:55:01;;;;;;;47.53;24.08;;;-0.30;99.90;;;;;;4943763;28;20030;-93
2023/12/18 07:57:27;;;;;;;49.20;23.50;;;-0.30;99.90;;;;;;4959351;28;20028;-91
2023/12/18 07:59:54;;;;;;;47.80;21.42;;;-0.30;99.90;;;;;;4957723;28;20111;-90
2023/12/18 08:02:20;;;;;;;56.00;24.67;;;-0.20;99.90;;;;;;4940962;29;20059;-89
2023/12/18 08:04:46;;;;;;;46.90;22.27;;;-0.30;99.90;;;;;;4944218;28;20027;-90
2023/12/18 08:07:12;;;;;;;46.50;22.63;;;-0.20;99.90;;;;;;4958939;28;20047;-90
2023/12/18 08:09:38;;;;;;;50.55;22.45;;;-0.20;99.90;;;;;;4954775;28;20031;-88
2023/12/18 08:12:04;;;;;;;46.58;23.23;;;-0.20;99.90;;;;;;4951223;28;20027;-91
2023/12/18 08:14:30;;;;;;;38.67;20.85;;;-0.10;99.90;;;;;;4934367;29;20020;-90
2023/12/18 08:16:55;;;;;;;44.20;21.92;;;-0.10;99.90;;;;;;4958689;28;20051;-91
2023/12/18 08:19:21;;;;;;;41.65;20.65;;;-0.10;99.90;;;;;;4959413;28;20110;-90
2023/12/18 08:21:49;;;;;;;39.53;21.55;;;-0.10;99.90;;;;;;4941747;29;20129;-90
2023/12/18 08:24:15;;;;;;;42.35;20.90;;;-0.10;99.90;;;;;;4962774;28;20067;-90
2023/12/18 08:26:46;;;;;;;40.13;19.30;;;0.00;99.90;;;;;;4962039;28;20410;-90
2023/12/18 08:29:18;;;;;;;34.28;17.75;;;0.10;99.90;;;;;;4940786;29;20090;-91
2023/12/18 08:31:46;;;;;;;35.75;19.33;;;0.10;99.90;;;;;;4943749;28;20027;-89
2023/12/18 08:34:12;;;;;;;40.38;18.65;;;0.10;99.90;;;;;;4942383;29;20031;-91
2023/12/18 08:36:38;;;;;;;38.95;19.73;;;0.20;99.90;;;;;;4963078;28;20560;-89
2023/12/18 08:39:08;;;;;;;37.70;17.88;;;0.20;99.90;;;;;;4958606;28;20023;-92
2023/12/18 08:41:35;;;;;;;38.05;19.27;;;0.20;99.90;;;;;;4959146;28;20035;-91
2023/12/18 08:44:01;;;;;;;40.58;20.52;;;0.30;99.90;;;;;;4959564;28;20031;-90
2023/12/18 08:46:26;;;;;;;36.47;19.00;;;0.30;99.90;;;;;;4973648;28;20042;-90
2023/12/18 08:48:58;;;;;;;36.72;18.13;;;0.40;99.90;;;;;;4964047;28;20031;-90
2023/12/18 08:51:23;;;;;;;37.30;18.90;;;0.40;99.90;;;;;;4955026;28;20027;-91
2023/12/18 08:53:49;;;;;;;37.92;18.30;;;0.50;99.90;;;;;;4945846;28;20078;-91
2023/12/18 08:56:15;;;;;;;34.55;19.40;;;0.50;99.90;;;;;;4961537;28;20031;-90
2023/12/18 08:58:41;;;;;;;36.08;19.30;;;0.60;99.90;;;;;;4939785;28;20035;-90
2023/12/18 09:01:09;;;;;;;45.08;21.05;;;0.60;99.90;;;;;;4958175;28;20027;-93
2023/12/18 09:03:35;;;;;;;40.42;19.33;;;0.60;99.90;;;;;;4939852;29;20062;-90
2023/12/18 09:06:04;;;;;;;44.53;19.77;;;0.60;99.90;;;;;;4956129;28;20082;-91
2023/12/18 09:08:39;;;;;;;45.95;21.95;;;0.80;99.90;;;;;;4966455;28;20027;-89
2023/12/18 09:11:06;;;;;;;43.05;19.75;;;0.80;99.90;;;;;;4933868;29;20058;-90
2023/12/18 09:13:38;;;;;;;35.65;19.75;;;0.90;99.90;;;;;;4966295;28;20023;-91
2023/12/18 09:16:07;;;;;;;39.60;18.00;;;1.00;99.90;;;;;;4956122;28;20070;-91
2023/12/18 09:18:33;;;;;;;38.85;20.38;;;1.00;99.90;;;;;;4953110;28;20087;-90
2023/12/18 09:20:59;;;;;;;36.53;19.10;;;1.00;99.90;;;;;;4959675;28;20172;-90
2023/12/18 09:34:22;;;;;;;37.20;18.38;;;1.40;99.90;;;;;;4948629;28;20038;-90
2023/12/18 09:36:48;;;;;;;32.55;17.08;;;1.50;99.90;;;;;;4958120;28;20027;-91
2023/12/18 09:39:17;;;;;;;36.17;17.98;;;1.70;99.90;;;;;;4966411;28;20046;-91
2023/12/18 09:41:43;;;;;;;37.17;22.05;;;1.80;99.90;;;;;;4940262;29;20434;-92
2023/12/18 09:44:11;;;;;;;33.33;16.88;;;1.90;99.90;;;;;;4947578;28;20028;-91
2023/12/18 09:46:37;;;;;;;35.22;18.83;;;2.00;99.90;;;;;;4938082;28;20100;-91
2023/12/18 09:49:03;;;;;;;32.63;18.25;;;2.10;99.90;;;;;;4950456;28;20059;-91
2023/12/18 09:51:30;;;;;;;40.97;19.85;;;2.30;99.90;;;;;;4945175;29;20027;-91
2023/12/18 09:53:56;;;;;;;35.28;16.67;;;2.40;99.90;;;;;;4957103;28;20099;-89
2023/12/18 09:56:23;;;;;;;31.88;16.90;;;2.60;99.90;;;;;;4962180;28;20362;-89
2023/12/18 09:58:48;;;;;;;36.65;17.58;;;2.70;99.90;;;;;;4940168;28;20051;-91
2023/12/18 10:01:17;;;;;;;31.20;15.48;;;2.90;99.90;;;;;;4957940;28;20030;-90
2023/12/18 10:03:43;;;;;;;30.02;16.70;;;3.10;99.90;;;;;;4939515;28;20067;-90
2023/12/18 10:06:09;;;;;;;31.60;18.20;;;3.20;99.90;;;;;;4956006;28;20082;-89
2023/12/18 10:08:35;;;;;;;34.45;18.17;;;3.30;99.90;;;;;;4932845;29;20028;-89
2023/12/18 10:11:11;;;;;;;28.02;15.38;;;3.40;99.90;;;;;;4945148;28;20172;-90
2023/12/18 10:13:37;;;;;;;30.10;15.27;;;3.40;99.90;;;;;;4946115;28;20091;-90
2023/12/18 10:16:02;;;;;;;32.03;18.23;;;3.50;99.90;;;;;;4941054;29;20050;-91
2023/12/18 10:18:28;;;;;;;30.75;17.35;;;3.60;99.90;;;;;;4957285;28;20023;-91
2023/12/18 10:20:57;;;;;;;32.70;15.90;;;3.80;99.90;;;;;;4956608;28;20032;-91
2023/12/18 10:23:23;;;;;;;33.33;15.32;;;3.80;99.90;;;;;;4959059;28;20042;-90
2023/12/18 10:25:48;;;;;;;30.05;16.02;;;4.00;99.90;;;;;;4957696;28;20260;-91
2023/12/18 10:28:14;;;;;;;31.52;16.85;;;4.20;99.90;;;;;;4957196;28;20034;-89
2023/12/18 10:30:40;;;;;;;31.08;16.70;;;4.30;99.90;;;;;;4957629;28;20102;-90
2023/12/18 10:33:09;;;;;;;27.35;16.00;;;4.30;99.90;;;;;;4956270;28;20030;-90
2023/12/18 10:35:36;;;;;;;29.10;15.75;;;4.40;99.90;;;;;;4943747;29;20031;-90
2023/12/18 10:38:02;;;;;;;28.65;15.25;;;4.40;99.90;;;;;;4946510;29;20090;-90
2023/12/18 10:40:28;;;;;;;27.80;15.82;;;4.40;99.90;;;;;;4939176;29;20026;-90
2023/12/18 10:43:15;;;;;;;23.10;13.80;;;4.50;99.30;;;;;;4967128;28;20055;-91
2023/12/18 10:45:42;;;;;;;24.20;14.50;;;4.60;98.70;;;;;;4933695;29;20027;-90
2023/12/18 10:48:09;;;;;;;27.27;14.68;;;4.80;98.50;;;;;;4966586;28;20074;-91
2023/12/18 10:50:36;;;;;;;23.00;13.43;;;5.00;97.60;;;;;;4954345;28;20019;-91
2023/12/18 10:53:04;;;;;;;26.13;14.48;;;5.10;96.90;;;;;;4951145;28;20098;-90
2023/12/18 10:55:31;;;;;;;27.17;13.40;;;5.20;96.10;;;;;;4959664;28;20084;-92
2023/12/18 10:57:59;;;;;;;25.65;14.25;;;5.30;96.00;;;;;;4963327;28;20042;-91
2023/12/18 11:00:32;;;;;;;23.42;14.32;;;5.40;95.30;;;;;;4961820;28;20024;-90
2023/12/18 11:03:02;;;;;;;25.30;14.25;;;5.60;95.20;;;;;;4959441;28;20031;-90
2023/12/18 11:05:29;;;;;;;23.30;13.75;;;5.60;93.90;;;;;;4962204;28;20031;-91
2023/12/18 11:07:58;;;;;;;30.13;13.57;;;5.70;93.80;;;;;;4962354;28;20046;-90
2023/12/18 11:10:27;;;;;;;23.13;13.10;;;5.80;95.70;;;;;;4949287;28;20105;-91
2023/12/18 11:13:20;;;;;;;21.05;12.27;;;6.00;92.80;;;;;;4962261;28;20038;-91
2023/12/18 11:16:16;;;;;;;22.20;12.73;;;6.20;91.70;;;;;;4943511;28;20043;-89
2023/12/18 11:19:00;;;;;;;19.50;12.63;;;6.40;90.30;;;;;;4949127;28;20007;-89
2023/12/18 11:21:29;;;;;;;21.63;11.93;;;6.60;89.50;;;;;;4952482;28;20046;-91
2023/12/18 11:24:11;;;;;;;25.65;12.98;;;6.70;89.00;;;;;;4962203;28;20026;-90
2023/12/18 11:26:38;;;;;;;24.10;11.35;;;6.90;87.90;;;;;;4956687;28;20028;-90
2023/12/18 11:29:43;;;;;;;19.40;11.80;;;7.10;87.60;;;;;;4942917;29;20042;-90
2023/12/18 11:32:32;;;;;;;23.27;12.95;;;6.90;84.60;;;;;;4937895;29;20055;-91
2023/12/18 11:34:58;;;;;;;23.17;12.68;;;7.00;87.10;;;;;;4961390;28;20034;-91
2023/12/18 11:37:23;;;;;;;17.58;11.85;;;7.50;84.50;;;;;;4963260;28;20062;-90
2023/12/18 11:39:52;;;;;;;19.02;12.40;;;7.60;81.50;;;;;;4941530;29;20095;-91
2023/12/18 11:42:46;;;;;;;20.25;12.82;;;7.70;81.00;;;;;;4947921;28;20390;-90
2023/12/18 11:45:15;;;;;;;21.40;14.70;;;7.60;81.80;;;;;;4949592;28;20472;-90
2023/12/18 11:47:40;;;;;;;16.25;10.38;;;7.70;82.00;;;;;;4960427;28;20031;-90
2023/12/18 11:50:07;;;;;;;19.20;11.30;;;7.70;79.50;;;;;;4959571;28;20023;-90
2023/12/18 11:52:32;;;;;;;19.23;11.15;;;7.50;80.60;;;;;;4957569;28;20051;-90
2023/12/18 11:54:58;;;;;;;16.98;11.82;;;7.50;80.20;;;;;;4941010;28;20043;-89
2023/12/18 11:57:24;;;;;;;20.30;12.43;;;7.70;81.50;;;;;;4946906;28;20031;-92
2023/12/18 11:59:50;;;;;;;17.77;12.07;;;7.80;80.70;;;;;;4960155;28;20099;-93
2023/12/18 12:02:16;;;;;;;19.83;11.48;;;8.10;78.80;;;;;;4943209;29;20031;-90
2023/12/18 12:04:46;;;;;;;18.10;10.93;;;8.00;78.20;;;;;;4968610;28;20058;-92
2023/12/18 12:07:12;;;;;;;17.00;11.50;;;8.00;78.30;;;;;;4960702;28;20035;-91
2023/12/18 12:09:40;;;;;;;20.08;13.02;;;8.30;78.90;;;;;;4940376;29;20023;-92
2023/12/18 12:12:06;;;;;;;20.77;12.02;;;8.50;76.40;;;;;;4941246;29;20043;-91
2023/12/18 12:14:32;;;;;;;20.85;11.63;;;8.30;76.50;;;;;;4956547;28;20514;-91
2023/12/18 12:17:04;;;;;;;18.50;11.52;;;8.40;75.60;;;;;;4958292;28;20020;-94
2023/12/18 12:19:36;;;;;;;24.00;13.48;;;8.60;76.50;;;;;;4947196;28;20037;-90
2023/12/18 12:22:06;;;;;;;21.02;11.80;;;8.60;76.30;;;;;;4954396;28;20048;-90
2023/12/18 12:24:33;;;;;;;21.05;11.45;;;8.80;74.00;;;;;;4957053;28;20062;-90
2023/12/18 12:26:59;;;;;;;21.88;11.95;;;8.90;73.20;;;;;;4958892;28;20027;-91
2023/12/18 12:29:29;;;;;;;20.95;11.98;;;8.90;72.90;;;;;;4938161;29;20114;-90
2023/12/18 12:31:55;;;;;;;21.27;13.35;;;8.90;73.70;;;;;;4942237;29;20031;-93
2023/12/18 12:34:20;;;;;;;21.63;13.15;;;8.70;73.40;;;;;;4959832;28;20075;-92
2023/12/18 12:36:46;;;;;;;20.05;12.18;;;8.80;73.80;;;;;;4955920;28;20032;-92
2023/12/18 12:39:12;;;;;;;19.02;11.20;;;8.80;74.30;;;;;;4936669;29;20055;-91
2023/12/18 12:41:46;;;;;;;19.58;13.38;;;8.90;74.50;;;;;;4937532;29;20051;-91
2023/12/18 12:44:18;;;;;;;18.58;12.80;;;9.00;72.80;;;;;;4958913;28;20161;-92
2023/12/18 12:46:45;;;;;;;18.13;10.73;;;9.10;72.70;;;;;;4920828;28;20031;-91